SCTB

Eulogio Sánchez Airport

Airport
ICAO code
SCTB
Summary
ICAO Region
CARSAM
ICAO Territory
Location

Santiago, Region Metropolitana

Serving
Santiago
Elevation
2129 ft
Coordinates
33° 27' 23" S , 70° 32' 48" W
KCC
BSk
Metar
Observation
SCTB 081500Z 00000KT CAVOK 09/02 Q1023
Station
EULOGIO SANCHEZ
Date/Time
2022-08-08 15:00:00
Wind direction
Wind speed
00 kts
Lowest cloud amount
clouds and visibility OK
Temperature
9°C
Dew point
2°C
Humidity
61%
QNH
1023 hPa
Weather condition
n/a

Also known as Tobalaba airport, Eulogio Sanchez airport is a private airport located on the eastern edge of Santiago, Chile, in La Reina.

Climatology

Cool semi-arid climate (Köppen climate classification BSk)

Runways

Designator Length Width Surface Rops
1/19 1000 30 ASP No/No

Airport map

Aerial View

SKYbrary Partners:

Safety knowledge contributed by: